Time;durP1;ratioP1;P1;durP2;ratioP2;P2;SDS_P1;SDS_P2;PMS_P1;PMS_P2;Temp;Humidity;BMP_temperature;BMP_pressure;BME280_temperature;BME280_humidity;BME280_pressure;Samples;Min_cycle;Max_cycle;Signal;HPM_P1;HPM_P2
2023/01/11 00:00:09;;;;;;;6.93;2.80;;;11.00;99.90;;;;;;5145212;28;20027;-64
2023/01/11 00:02:40;;;;;;;4.20;2.35;;;10.90;99.90;;;;;;5145594;28;20026;-64
2023/01/11 00:05:11;;;;;;;7.35;2.45;;;10.60;99.90;;;;;;5145283;28;20497;-64
2023/01/11 00:07:42;;;;;;;3.08;2.45;;;10.80;99.90;;;;;;5145168;28;20023;-64
2023/01/11 00:10:13;;;;;;;3.33;2.00;;;10.80;99.90;;;;;;5145095;28;20347;-64
2023/01/11 00:12:44;;;;;;;4.15;1.90;;;10.80;99.90;;;;;;5145089;28;20039;-63
2023/01/11 00:15:15;;;;;;;8.30;5.80;;;10.90;99.90;;;;;;5144985;28;20034;-64
2023/01/11 00:17:46;;;;;;;15.43;14.45;;;10.70;99.90;;;;;;5145002;28;20023;-64
2023/01/11 00:20:18;;;;;;;3.35;3.15;;;10.70;99.90;;;;;;5144787;28;20027;-64
2023/01/11 00:22:49;;;;;;;4.68;2.20;;;10.70;99.90;;;;;;5144617;28;20051;-64
2023/01/11 00:25:19;;;;;;;4.35;3.95;;;10.70;99.90;;;;;;5144882;28;20089;-64
2023/01/11 00:27:50;;;;;;;2.35;1.42;;;10.50;99.90;;;;;;5144766;28;20061;-64
2023/01/11 00:30:21;;;;;;;5.13;1.83;;;10.70;99.90;;;;;;5144597;28;20027;-64
2023/01/11 00:32:57;;;;;;;4.68;2.42;;;10.70;99.90;;;;;;5144652;28;20097;-63
2023/01/11 00:35:30;;;;;;;2.53;1.50;;;10.70;99.90;;;;;;5144680;28;20061;-64
2023/01/11 00:38:00;;;;;;;5.93;1.40;;;10.80;99.90;;;;;;5144613;28;20030;-64
2023/01/11 00:40:31;;;;;;;1.25;1.00;;;10.60;99.90;;;;;;5144620;28;20478;-64
2023/01/11 00:48:40;;;;;;;2.97;1.48;;;10.80;99.90;;;;;;5144686;28;20534;-63
2023/01/11 00:51:11;;;;;;;1.73;1.48;;;10.70;99.90;;;;;;5144594;28;20121;-64
2023/01/11 00:53:47;;;;;;;2.38;1.10;;;10.80;99.90;;;;;;5144317;28;20066;-64
2023/01/11 00:56:17;;;;;;;6.53;3.20;;;10.70;99.90;;;;;;5144418;28;20038;-64
2023/01/11 00:58:48;;;;;;;2.92;1.30;;;10.60;99.90;;;;;;5144424;28;20023;-64
2023/01/11 01:01:19;;;;;;;1.10;1.10;;;10.60;99.90;;;;;;5144285;28;20127;-64
2023/01/11 01:03:50;;;;;;;1.60;1.40;;;10.70;99.90;;;;;;5144280;28;20027;-64
2023/01/11 01:06:21;;;;;;;1.30;1.20;;;10.50;99.90;;;;;;5144155;28;20117;-64
2023/01/11 01:08:51;;;;;;;2.28;1.38;;;10.70;99.90;;;;;;5144268;28;20039;-64
2023/01/11 01:11:23;;;;;;;4.93;1.52;;;10.90;99.90;;;;;;5144241;28;20149;-63
2023/01/11 01:16:46;;;;;;;1.60;1.40;;;10.70;99.90;;;;;;5148547;28;20532;-64
2023/01/11 01:19:16;;;;;;;2.22;1.17;;;10.80;99.90;;;;;;5148185;28;20495;-64
2023/01/11 01:21:48;;;;;;;3.00;1.58;;;10.70;99.90;;;;;;5148131;28;20105;-64
2023/01/11 01:24:19;;;;;;;2.05;1.67;;;10.70;99.90;;;;;;5146583;28;20459;-64
2023/01/11 01:26:50;;;;;;;1.50;1.40;;;10.70;99.90;;;;;;5148040;28;20081;-63
2023/01/11 01:29:21;;;;;;;4.22;1.20;;;10.70;99.90;;;;;;5148047;28;20027;-63
2023/01/11 01:31:52;;;;;;;2.60;1.02;;;10.80;99.90;;;;;;5148187;28;20498;-63
2023/01/11 01:34:23;;;;;;;1.55;1.25;;;10.50;99.90;;;;;;5147878;28;20054;-64
2023/01/11 01:36:54;;;;;;;1.65;1.55;;;10.40;99.90;;;;;;5147849;28;20054;-64
2023/01/11 01:39:25;;;;;;;4.68;1.40;;;10.40;99.90;;;;;;5148039;28;20057;-63
2023/01/11 01:41:56;;;;;;;1.30;1.20;;;10.40;99.90;;;;;;5147771;28;20027;-63
2023/01/11 01:45:14;;;;;;;3.47;1.10;;;10.40;99.90;;;;;;5147736;28;20227;-64
2023/01/11 01:47:49;;;;;;;1.67;1.55;;;10.70;99.90;;;;;;5145639;28;20109;-64
2023/01/11 01:50:27;;;;;;;2.20;1.10;;;10.70;99.90;;;;;;5147622;28;20077;-64
2023/01/11 01:53:13;;;;;;;2.25;1.10;;;10.70;99.90;;;;;;5147331;28;20137;-64
2023/01/11 01:55:49;;;;;;;1.08;1.08;;;10.60;99.90;;;;;;5147769;28;20099;-64
2023/01/11 01:58:28;;;;;;;1.60;1.50;;;10.50;99.90;;;;;;5147682;28;20035;-64
2023/01/11 02:01:45;;;;;;;4.60;1.70;;;10.80;99.90;;;;;;5147506;28;20027;-64
2023/01/11 02:03:51;;;;;;;1.88;1.30;;;10.90;99.90;;;;;;5147328;28;20371;-64
2023/01/11 02:06:22;;;;;;;1.52;1.42;;;10.80;99.90;;;;;;5147350;28;20035;-64
2023/01/11 02:09:02;;;;;;;1.48;1.38;;;10.80;99.90;;;;;;5147271;28;20035;-65
2023/01/11 02:11:42;;;;;;;4.22;2.80;;;10.90;99.90;;;;;;5147199;28;20552;-64
2023/01/11 02:14:16;;;;;;;3.28;1.77;;;10.90;99.90;;;;;;5147274;28;20031;-64
2023/01/11 02:16:47;;;;;;;3.72;1.50;;;10.90;99.90;;;;;;5147156;28;20093;-65
2023/01/11 02:20:07;;;;;;;2.10;2.00;;;10.80;99.90;;;;;;5146970;28;20038;-64
2023/01/11 02:22:59;;;;;;;1.95;1.73;;;10.80;99.90;;;;;;5137093;28;20074;-63
2023/01/11 02:25:33;;;;;;;2.03;1.58;;;10.80;99.90;;;;;;5147002;28;20510;-64
2023/01/11 02:28:09;;;;;;;2.78;1.67;;;10.60;99.90;;;;;;5147163;28;20486;-64
2023/01/11 02:30:56;;;;;;;1.65;1.42;;;10.30;99.90;;;;;;5147271;28;20027;-64
2023/01/11 02:33:29;;;;;;;1.52;1.42;;;10.50;99.90;;;;;;5147020;28;20114;-64
2023/01/11 02:36:18;;;;;;;2.15;1.95;;;10.50;99.90;;;;;;5146943;28;20027;-63
2023/01/11 02:39:14;;;;;;;3.05;1.80;;;10.30;99.90;;;;;;5146744;28;20031;-64
2023/01/11 02:45:18;;;;;;;4.47;2.42;;;10.30;99.90;;;;;;5146655;28;20034;-65
2023/01/11 02:48:06;;;;;;;2.67;1.50;;;10.10;99.90;;;;;;5147022;28;20104;-64
2023/01/11 02:50:49;;;;;;;6.18;3.30;;;10.10;99.90;;;;;;5146678;28;20041;-64
2023/01/11 02:53:33;;;;;;;9.55;3.92;;;10.10;99.90;;;;;;5146225;28;20106;-64
2023/01/11 02:56:29;;;;;;;6.43;4.00;;;9.80;99.90;;;;;;5146420;28;20106;-64
2023/01/11 02:59:01;;;;;;;2.92;2.22;;;10.00;99.90;;;;;;5145917;28;20053;-64
2023/01/11 03:01:32;;;;;;;2.80;2.03;;;9.50;99.90;;;;;;5146287;28;20081;-63
2023/01/11 03:04:02;;;;;;;3.13;2.40;;;9.70;99.90;;;;;;5146332;28;20055;-63
2023/01/11 03:06:34;;;;;;;3.08;2.28;;;9.40;99.90;;;;;;5146212;28;20023;-63
2023/01/11 03:09:11;;;;;;;2.20;2.00;;;9.60;99.90;;;;;;5146094;28;20058;-63
2023/01/11 03:15:11;;;;;;;3.20;2.17;;;9.80;99.90;;;;;;5146546;28;20085;-64
2023/01/11 03:17:48;;;;;;;2.80;2.10;;;9.20;99.90;;;;;;5146343;28;20194;-64
2023/01/11 03:20:37;;;;;;;2.35;2.15;;;9.60;99.90;;;;;;5146064;28;20022;-64
2023/01/11 03:23:33;;;;;;;4.32;2.72;;;9.50;99.90;;;;;;5145524;28;20053;-64
2023/01/11 03:26:19;;;;;;;4.30;2.55;;;9.50;99.90;;;;;;5145957;28;20374;-64
2023/01/11 03:29:15;;;;;;;6.00;2.90;;;9.20;99.90;;;;;;5145628;28;20031;-64
2023/01/11 03:31:56;;;;;;;2.00;1.80;;;9.30;99.90;;;;;;5145579;28;20411;-64
2023/01/11 03:34:41;;;;;;;6.40;2.00;;;8.70;99.90;;;;;;5145255;28;20038;-64
2023/01/11 03:37:43;;;;;;;2.85;1.95;;;8.80;99.90;;;;;;5145225;28;20069;-63
2023/01/11 03:40:28;;;;;;;3.20;2.00;;;9.00;99.90;;;;;;5145741;28;20026;-64
2023/01/11 03:43:10;;;;;;;2.67;2.20;;;9.10;99.90;;;;;;5145479;28;20109;-64
2023/01/11 03:45:53;;;;;;;5.65;2.03;;;8.80;99.90;;;;;;5145647;28;20114;-64
2023/01/11 03:48:33;;;;;;;3.08;2.60;;;9.00;99.90;;;;;;5145495;28;20034;-63
2023/01/11 03:51:06;;;;;;;;;;;8.90;99.90;;;;;;5145888;28;20441;-64
2023/01/11 03:53:43;;;;;;;2.35;2.10;;;8.80;99.90;;;;;;5145151;28;20366;-64
2023/01/11 03:56:17;;;;;;;5.05;1.80;;;8.60;99.90;;;;;;5145629;28;20116;-65
2023/01/11 03:58:48;;;;;;;2.58;2.38;;;8.70;99.90;;;;;;5145619;28;20038;-64
2023/01/11 04:01:19;;;;;;;2.67;2.47;;;8.90;99.90;;;;;;5145143;28;20047;-65
2023/01/11 04:03:50;;;;;;;2.53;2.00;;;9.00;99.90;;;;;;5145112;28;20135;-64
2023/01/11 04:06:22;;;;;;;5.45;2.50;;;9.10;99.90;;;;;;5145098;28;20102;-63
2023/01/11 04:08:53;;;;;;;2.60;2.40;;;8.70;99.90;;;;;;5145059;28;20042;-63
2023/01/11 04:11:24;;;;;;;3.58;2.28;;;9.10;99.90;;;;;;5144893;28;20042;-64
2023/01/11 04:13:55;;;;;;;3.15;2.70;;;8.80;99.90;;;;;;5144957;28;20027;-64
2023/01/11 04:16:26;;;;;;;2.40;2.20;;;8.60;99.90;;;;;;5144892;28;20027;-63
2023/01/11 04:18:56;;;;;;;2.78;1.95;;;8.90;99.90;;;;;;5144879;28;20370;-63
2023/01/11 04:21:28;;;;;;;3.00;2.55;;;8.90;99.90;;;;;;5144658;28;20026;-63
2023/01/11 04:23:59;;;;;;;4.55;2.97;;;8.80;99.90;;;;;;5144492;28;20058;-64
2023/01/11 04:26:30;;;;;;;2.40;2.20;;;8.30;99.90;;;;;;5144633;28;20052;-64
2023/01/11 04:29:01;;;;;;;4.57;2.08;;;8.60;99.90;;;;;;5144698;28;20041;-64
2023/01/11 04:31:31;;;;;;;3.00;2.65;;;8.90;99.90;;;;;;5144477;28;20035;-63
2023/01/11 04:34:02;;;;;;;2.63;2.13;;;8.60;99.90;;;;;;5144683;28;20134;-64
2023/01/11 04:36:33;;;;;;;8.30;2.40;;;8.80;99.90;;;;;;5144619;28;20045;-64
2023/01/11 04:39:05;;;;;;;4.85;2.25;;;8.40;99.90;;;;;;5144659;28;20109;-63
2023/01/11 04:44:26;;;;;;;3.83;2.10;;;8.40;99.90;;;;;;5144739;28;20116;-63
2023/01/11 04:46:57;;;;;;;3.08;2.30;;;8.60;99.90;;;;;;5144460;28;20030;-64
2023/01/11 04:49:28;;;;;;;3.25;2.42;;;8.80;99.90;;;;;;5144766;28;20041;-64
2023/01/11 04:51:59;;;;;;;3.67;2.60;;;8.80;99.90;;;;;;5144473;28;20082;-63
2023/01/11 04:54:29;;;;;;;3.70;3.40;;;8.40;99.90;;;;;;5144569;28;20089;-64
2023/01/11 04:57:00;;;;;;;2.88;2.50;;;8.10;99.90;;;;;;5144491;28;20019;-64
2023/01/11 04:59:31;;;;;;;4.03;2.67;;;8.50;99.90;;;;;;5144411;28;20045;-64
2023/01/11 05:02:02;;;;;;;4.97;2.83;;;8.30;99.90;;;;;;5144172;28;20058;-64
2023/01/11 05:04:33;;;;;;;2.72;2.33;;;8.50;99.90;;;;;;5144485;28;20019;-64
2023/01/11 05:07:06;;;;;;;5.28;2.50;;;8.50;99.90;;;;;;5144675;28;20109;-64
2023/01/11 05:09:37;;;;;;;2.90;2.50;;;8.60;99.90;;;;;;5144554;28;20471;-64
2023/01/11 05:12:08;;;;;;;8.77;2.53;;;8.30;99.90;;;;;;5144220;28;20045;-64
2023/01/11 05:14:39;;;;;;;2.70;2.50;;;8.40;99.90;;;;;;5144277;28;20479;-64
2023/01/11 05:17:14;;;;;;;4.75;2.90;;;8.50;99.90;;;;;;5144155;28;20082;-64
2023/01/11 05:19:45;;;;;;;9.70;2.80;;;8.10;99.90;;;;;;5144212;28;20034;-65
2023/01/11 05:22:16;;;;;;;4.65;3.03;;;8.40;99.90;;;;;;5143947;28;20031;-63
2023/01/11 05:24:47;;;;;;;4.80;2.40;;;8.70;99.90;;;;;;5144034;28;20054;-64
2023/01/11 05:27:17;;;;;;;3.33;2.22;;;8.70;99.90;;;;;;5142842;28;20027;-64
2023/01/11 05:29:48;;;;;;;5.75;3.72;;;8.40;99.90;;;;;;5144108;28;20019;-63
2023/01/11 05:32:19;;;;;;;6.15;3.58;;;8.20;99.90;;;;;;5143842;28;20085;-64
2023/01/11 05:34:50;;;;;;;6.43;5.43;;;9.20;99.90;;;;;;5143971;28;20475;-64
2023/01/11 05:37:21;;;;;;;5.85;3.97;;;9.60;99.90;;;;;;5144021;28;20431;-63
2023/01/11 05:39:52;;;;;;;4.30;3.58;;;9.90;99.90;;;;;;5143863;28;20031;-64
2023/01/11 05:42:22;;;;;;;10.20;4.47;;;10.20;99.90;;;;;;5143878;28;20030;-64
2023/01/11 05:47:43;;;;;;;6.63;4.03;;;10.30;99.90;;;;;;5144025;28;20444;-64
2023/01/11 05:50:14;;;;;;;4.07;3.60;;;9.80;99.90;;;;;;5143978;28;20015;-64
2023/01/11 05:52:45;;;;;;;6.75;3.78;;;9.60;99.90;;;;;;5143628;28;20431;-64
2023/01/11 05:55:15;;;;;;;7.93;3.60;;;9.50;99.90;;;;;;5144200;28;20026;-64
2023/01/11 05:57:46;;;;;;;15.13;4.25;;;9.70;99.90;;;;;;5144059;28;20038;-64
2023/01/11 06:00:18;;;;;;;7.72;4.07;;;9.90;99.90;;;;;;5146094;28;20026;-64
2023/01/11 06:02:49;;;;;;;5.25;4.03;;;9.60;99.90;;;;;;5147454;28;20110;-64
2023/01/11 06:05:19;;;;;;;6.45;4.63;;;9.80;99.90;;;;;;5147415;28;20114;-64
2023/01/11 06:07:52;;;;;;;7.50;4.65;;;9.90;99.90;;;;;;5147316;28;20034;-64
2023/01/11 06:10:23;;;;;;;26.63;14.00;;;9.80;99.90;;;;;;5147381;28;20098;-63
2023/01/11 06:13:25;;;;;;;10.90;4.15;;;10.50;99.90;;;;;;5147439;28;20473;-63
2023/01/11 06:15:45;;;;;;;7.43;4.88;;;10.50;99.90;;;;;;5147351;28;20046;-64
2023/01/11 06:18:16;;;;;;;8.35;4.78;;;10.80;99.90;;;;;;5147050;28;20376;-64
2023/01/11 06:20:51;;;;;;;6.97;4.20;;;10.80;99.90;;;;;;5146988;28;20125;-64
2023/01/11 06:23:23;;;;;;;4.88;3.97;;;10.80;99.90;;;;;;5146717;28;20047;-63
2023/01/11 06:25:54;;;;;;;33.72;17.58;;;10.80;99.90;;;;;;5145627;28;20031;-65
2023/01/11 06:28:25;;;;;;;16.75;9.55;;;10.30;99.90;;;;;;5146982;28;20027;-64
2023/01/11 06:30:57;;;;;;;8.88;4.68;;;10.40;99.90;;;;;;5146777;28;20406;-64
2023/01/11 06:33:29;;;;;;;6.95;5.07;;;10.70;99.90;;;;;;5146969;28;20031;-64
2023/01/11 06:36:05;;;;;;;6.57;4.82;;;10.70;99.90;;;;;;5146989;28;20042;-65
2023/01/11 06:38:36;;;;;;;11.77;6.32;;;10.70;99.90;;;;;;5146790;28;20034;-64
2023/01/11 06:41:08;;;;;;;9.57;4.68;;;10.50;99.90;;;;;;5146624;28;20030;-64
2023/01/11 06:43:40;;;;;;;5.15;3.60;;;10.40;99.90;;;;;;5146452;28;20046;-65
2023/01/11 06:46:13;;;;;;;7.30;4.45;;;10.50;99.90;;;;;;5146585;28;20049;-64
2023/01/11 06:48:44;;;;;;;9.30;4.45;;;10.10;99.90;;;;;;5146494;28;20038;-63
2023/01/11 06:51:15;;;;;;;8.55;5.97;;;10.00;99.90;;;;;;5146329;28;20030;-63
2023/01/11 06:53:46;;;;;;;10.23;4.80;;;10.10;99.90;;;;;;5146144;28;20038;-63
2023/01/11 06:56:20;;;;;;;7.32;4.57;;;10.20;99.90;;;;;;5146441;28;20387;-64
2023/01/11 06:58:51;;;;;;;7.88;5.03;;;10.20;99.90;;;;;;5146265;28;20103;-64
2023/01/11 07:01:23;;;;;;;11.68;5.68;;;9.90;99.90;;;;;;5146451;28;20781;-64
2023/01/11 07:03:54;;;;;;;13.13;6.50;;;10.10;99.90;;;;;;5146567;28;20640;-64
2023/01/11 07:06:26;;;;;;;8.60;5.93;;;10.10;99.90;;;;;;5146392;28;20367;-64
2023/01/11 07:08:57;;;;;;;10.65;5.88;;;10.10;99.90;;;;;;5146386;28;20034;-63
2023/01/11 07:11:30;;;;;;;16.67;9.25;;;10.10;99.90;;;;;;5146063;28;20045;-64
2023/01/11 07:14:01;;;;;;;16.42;9.18;;;10.00;99.90;;;;;;5145870;28;20034;-65
2023/01/11 07:16:32;;;;;;;28.52;15.43;;;10.10;99.90;;;;;;5146060;28;20031;-64
2023/01/11 07:19:03;;;;;;;34.78;18.05;;;10.10;99.90;;;;;;5146080;28;20382;-63
2023/01/11 07:21:33;;;;;;;33.88;19.52;;;10.30;99.90;;;;;;5146398;28;20058;-63
2023/01/11 07:24:04;;;;;;;47.63;24.48;;;10.10;99.90;;;;;;5145621;28;20059;-64
2023/01/11 07:26:40;;;;;;;38.45;19.42;;;10.20;99.90;;;;;;5145882;28;20031;-64
2023/01/11 07:29:11;;;;;;;42.20;19.35;;;10.30;99.90;;;;;;5145645;28;20054;-64
2023/01/11 07:31:41;;;;;;;34.65;17.55;;;10.30;99.90;;;;;;5145647;28;20031;-65
2023/01/11 07:34:12;;;;;;;33.92;18.58;;;10.30;99.90;;;;;;5145718;28;20034;-64
2023/01/11 07:36:43;;;;;;;31.83;14.88;;;10.40;99.90;;;;;;5145803;28;20034;-64
2023/01/11 07:39:14;;;;;;;28.42;13.80;;;10.40;99.90;;;;;;5145495;28;20035;-64
2023/01/11 07:44:34;;;;;;;29.02;14.75;;;10.50;99.90;;;;;;5145546;28;20038;-64
2023/01/11 07:47:05;;;;;;;27.95;13.85;;;10.60;99.90;;;;;;5145560;28;20470;-64
2023/01/11 07:49:36;;;;;;;29.40;13.77;;;10.70;99.90;;;;;;5145688;28;20039;-64
2023/01/11 07:52:07;;;;;;;34.35;16.75;;;10.40;99.90;;;;;;5145164;28;20398;-65
2023/01/11 07:54:38;;;;;;;24.20;14.63;;;10.50;99.90;;;;;;5145294;28;20027;-64
2023/01/11 07:57:08;;;;;;;26.63;13.63;;;10.70;99.90;;;;;;5145304;28;20054;-64
2023/01/11 07:59:39;;;;;;;25.77;12.95;;;10.90;99.90;;;;;;5145311;28;20031;-63
2023/01/11 08:02:10;;;;;;;25.15;12.68;;;10.90;99.90;;;;;;5145087;28;20023;-64
2023/01/11 08:04:41;;;;;;;22.02;12.27;;;10.90;99.90;;;;;;5145071;28;20054;-64
2023/01/11 08:07:12;;;;;;;26.75;13.30;;;10.80;99.90;;;;;;5145004;28;20057;-63
2023/01/11 08:09:44;;;;;;;25.00;13.50;;;10.90;99.90;;;;;;5145095;28;20062;-63
2023/01/11 08:15:05;;;;;;;21.77;12.45;;;10.90;99.90;;;;;;5145246;28;20069;-64
2023/01/11 08:17:37;;;;;;;31.52;16.17;;;11.00;99.90;;;;;;5145064;28;20034;-64
2023/01/11 08:20:08;;;;;;;33.22;15.68;;;11.00;99.90;;;;;;5144823;28;20097;-64
2023/01/11 08:22:39;;;;;;;43.20;17.75;;;11.00;99.90;;;;;;5144084;28;20035;-64
2023/01/11 08:25:10;;;;;;;40.17;18.60;;;11.00;99.90;;;;;;5144736;28;20093;-64
2023/01/11 08:27:41;;;;;;;81.40;34.47;;;11.00;99.90;;;;;;5144931;28;20026;-65
2023/01/11 08:30:13;;;;;;;76.95;35.15;;;11.00;99.90;;;;;;5145074;28;20446;-63
2023/01/11 08:32:43;;;;;;;94.22;38.85;;;10.90;99.90;;;;;;5144724;28;20081;-63
2023/01/11 08:35:14;;;;;;;74.28;35.40;;;11.00;99.90;;;;;;5144606;28;20038;-64
2023/01/11 08:37:45;;;;;;;57.83;29.45;;;10.90;99.90;;;;;;5144698;28;20061;-64
2023/01/11 08:40:16;;;;;;;49.95;26.85;;;11.00;99.90;;;;;;5144810;28;20058;-64
2023/01/11 08:42:47;;;;;;;46.15;23.85;;;11.00;99.90;;;;;;5144641;28;20102;-64
2023/01/11 08:45:21;;;;;;;37.72;20.20;;;11.20;99.90;;;;;;5143205;28;20063;-64
2023/01/11 08:47:52;;;;;;;38.85;21.50;;;11.20;99.90;;;;;;5144394;28;20086;-64
2023/01/11 08:50:23;;;;;;;45.30;24.50;;;11.10;99.90;;;;;;5144497;28;20058;-64
2023/01/11 08:52:53;;;;;;;52.55;27.23;;;11.10;99.90;;;;;;5144368;28;20057;-64
2023/01/11 08:55:24;;;;;;;52.08;28.13;;;10.80;99.90;;;;;;5144531;28;20031;-64
2023/01/11 08:57:56;;;;;;;73.13;38.10;;;11.00;99.90;;;;;;5144348;28;20076;-64
2023/01/11 09:00:27;;;;;;;48.35;27.70;;;11.00;99.90;;;;;;5144279;28;20130;-64
2023/01/11 09:03:01;;;;;;;41.58;25.58;;;11.00;99.90;;;;;;5144175;28;20105;-64
2023/01/11 09:05:32;;;;;;;45.17;25.35;;;11.10;99.90;;;;;;5142952;28;20503;-64
2023/01/11 09:08:04;;;;;;;51.13;30.42;;;11.20;99.90;;;;;;5144211;28;20022;-64
2023/01/11 09:10:35;;;;;;;43.88;26.08;;;11.10;99.90;;;;;;5144326;28;20030;-65
2023/01/11 09:13:05;;;;;;;51.28;27.67;;;11.20;99.90;;;;;;5143988;28;20043;-62
2023/01/11 09:15:36;;;;;;;48.25;25.75;;;11.20;99.90;;;;;;5144244;28;20029;-64
2023/01/11 09:18:07;;;;;;;56.50;30.00;;;11.20;99.90;;;;;;5143950;28;20035;-63
2023/01/11 09:20:38;;;;;;;69.95;35.63;;;11.20;99.90;;;;;;5144183;28;20062;-64
2023/01/11 09:23:09;;;;;;;67.50;34.55;;;11.00;99.90;;;;;;5143615;28;20436;-66
2023/01/11 09:25:40;;;;;;;76.95;40.03;;;11.00;99.90;;;;;;5144239;28;20046;-64
2023/01/11 09:28:11;;;;;;;62.80;34.70;;;11.20;99.90;;;;;;5144140;28;20011;-65
2023/01/11 09:30:42;;;;;;;52.17;29.92;;;11.10;99.90;;;;;;5143962;28;20027;-64
2023/01/11 09:33:13;;;;;;;66.85;34.17;;;11.00;99.90;;;;;;5144242;28;20364;-64
2023/01/11 09:35:45;;;;;;;53.85;30.88;;;11.00;99.90;;;;;;5148060;28;20737;-64
2023/01/11 09:38:16;;;;;;;49.33;26.65;;;11.10;99.90;;;;;;5148023;28;20022;-64
2023/01/11 09:40:56;;;;;;;44.00;22.13;;;11.20;99.90;;;;;;5148274;28;20037;-64
2023/01/11 09:43:29;;;;;;;42.17;19.13;;;11.30;99.90;;;;;;5147935;28;20505;-64
2023/01/11 09:46:04;;;;;;;31.75;17.00;;;11.10;99.90;;;;;;5147710;28;20390;-64
2023/01/11 09:48:43;;;;;;;32.47;16.70;;;11.10;99.90;;;;;;5147740;28;20177;-64
2023/01/11 09:51:15;;;;;;;25.75;15.20;;;11.00;99.90;;;;;;5147566;28;20042;-64
2023/01/11 09:53:51;;;;;;;24.42;14.07;;;11.00;99.90;;;;;;5622836;23;20066;-64
2023/01/11 09:56:28;;;;;;;23.90;14.50;;;11.10;99.90;;;;;;5147467;28;20166;-64
2023/01/11 09:59:25;;;;;;;29.02;14.85;;;11.20;99.90;;;;;;5147564;28;20505;-64
2023/01/11 10:02:10;;;;;;;26.52;14.63;;;11.10;99.90;;;;;;5147459;28;20077;-64
2023/01/11 10:04:41;;;;;;;25.83;16.17;;;11.10;99.90;;;;;;5147358;28;20039;-65
2023/01/11 10:07:15;;;;;;;26.83;15.35;;;10.90;99.90;;;;;;5147272;28;20030;-64
2023/01/11 10:10:05;;;;;;;30.13;15.85;;;10.90;99.90;;;;;;5147204;28;20065;-63
2023/01/11 10:12:44;;;;;;;28.52;16.15;;;10.80;99.90;;;;;;5147006;28;20038;-64
2023/01/11 10:15:31;;;;;;;44.92;22.95;;;11.00;99.90;;;;;;5147107;28;20023;-64
2023/01/11 10:18:26;;;;;;;30.35;16.98;;;10.90;99.90;;;;;;5147050;28;20038;-64
2023/01/11 10:21:14;;;;;;;28.95;16.33;;;10.90;99.90;;;;;;5145711;28;20030;-64
2023/01/11 10:23:52;;;;;;;29.25;16.40;;;11.20;99.90;;;;;;5146824;28;20026;-64
2023/01/11 10:26:34;;;;;;;51.15;27.42;;;11.20;99.90;;;;;;5146933;28;20045;-64
2023/01/11 10:32:12;;;;;;;;;;;11.40;99.90;;;;;;5147573;28;20045;-63
2023/01/11 10:35:13;;;;;;;102.10;50.08;;;11.20;99.90;;;;;;5147087;28;19910;-64
2023/01/11 10:38:24;;;;;;;102.97;50.95;;;11.10;99.90;;;;;;5146953;28;20054;-64
2023/01/11 10:41:19;;;;;;;134.27;62.90;;;11.20;99.90;;;;;;5146634;28;20077;-65
2023/01/11 10:44:03;;;;;;;146.30;66.00;;;10.90;99.90;;;;;;5146557;28;20027;-64
2023/01/11 10:46:43;;;;;;;134.55;61.20;;;11.10;99.90;;;;;;5146619;28;20027;-64
2023/01/11 10:49:40;;;;;;;136.98;61.63;;;11.10;99.90;;;;;;5146637;28;20030;-64
2023/01/11 10:52:40;;;;;;;138.13;61.50;;;11.20;99.90;;;;;;5146588;28;20093;-64
2023/01/11 10:55:22;;;;;;;141.52;62.70;;;11.30;99.90;;;;;;5137237;28;20043;-64
2023/01/11 10:58:17;;;;;;;139.98;58.67;;;11.30;99.90;;;;;;5146491;28;20031;-64
2023/01/11 11:01:17;;;;;;;134.15;58.55;;;11.30;99.90;;;;;;5146531;28;20019;-64
2023/01/11 11:04:04;;;;;;;96.28;46.30;;;11.30;99.90;;;;;;5146390;28;20505;-65
2023/01/11 11:06:49;;;;;;;93.78;45.63;;;11.30;99.90;;;;;;5146318;28;20039;-65
2023/01/11 11:09:34;;;;;;;99.20;43.13;;;11.40;99.90;;;;;;5146286;28;20041;-64
2023/01/11 11:12:12;;;;;;;84.72;39.22;;;11.40;99.90;;;;;;5146024;28;20050;-65
2023/01/11 11:15:12;;;;;;;50.17;27.42;;;11.50;99.90;;;;;;5145899;28;20114;-64
2023/01/11 11:17:50;;;;;;;39.17;22.95;;;11.50;99.90;;;;;;5142956;28;20043;-65
2023/01/11 11:20:27;;;;;;;50.75;30.75;;;11.50;99.90;;;;;;5146131;28;20044;-65
2023/01/11 11:22:58;;;;;;;37.97;17.75;;;11.50;99.90;;;;;;5145700;28;20066;-64
2023/01/11 11:25:30;;;;;;;24.17;14.05;;;11.60;99.90;;;;;;5145890;28;20062;-65
2023/01/11 11:28:01;;;;;;;26.50;15.73;;;11.70;99.90;;;;;;5145818;28;20027;-65
2023/01/11 11:30:40;;;;;;;30.88;14.63;;;11.70;99.90;;;;;;5145720;28;20031;-66
2023/01/11 11:33:39;;;;;;;23.08;13.88;;;11.70;99.90;;;;;;5145711;28;20140;-64
2023/01/11 11:36:12;;;;;;;26.10;15.32;;;11.70;99.90;;;;;;5145633;28;20367;-64
2023/01/11 11:39:01;;;;;;;35.70;18.00;;;11.80;99.90;;;;;;5145714;28;20522;-65
2023/01/11 11:41:49;;;;;;;36.53;22.27;;;11.80;99.90;;;;;;5145746;28;20367;-65
2023/01/11 11:44:23;;;;;;;32.75;16.95;;;11.90;99.90;;;;;;5145669;28;20081;-65
2023/01/11 11:46:59;;;;;;;28.63;14.95;;;11.80;99.90;;;;;;5145634;28;20037;-64
2023/01/11 11:49:35;;;;;;;24.30;14.50;;;11.90;99.90;;;;;;5145346;28;20027;-65
2023/01/11 11:52:11;;;;;;;28.30;15.95;;;12.00;99.90;;;;;;5145191;28;20077;-64
2023/01/11 11:54:54;;;;;;;23.13;13.32;;;12.00;99.90;;;;;;5145178;28;20053;-64
2023/01/11 11:57:31;;;;;;;22.10;12.57;;;12.00;99.90;;;;;;5144911;28;20041;-64
2023/01/11 12:00:06;;;;;;;23.73;14.00;;;11.90;99.90;;;;;;5145697;28;20027;-64
2023/01/11 12:02:48;;;;;;;18.08;11.65;;;11.70;99.90;;;;;;5145342;28;20042;-64
2023/01/11 12:05:20;;;;;;;16.10;10.82;;;11.80;99.90;;;;;;5145216;28;20030;-65
2023/01/11 12:07:52;;;;;;;19.15;10.55;;;11.50;99.90;;;;;;5145117;28;20035;-65
2023/01/11 12:10:26;;;;;;;64.10;30.70;;;11.70;99.90;;;;;;5145107;28;20026;-65
2023/01/11 12:12:59;;;;;;;42.83;20.17;;;11.60;99.90;;;;;;5144736;28;20121;-65
2023/01/11 12:15:31;;;;;;;31.35;14.40;;;11.70;99.90;;;;;;5144942;28;20022;-65
2023/01/11 12:18:27;;;;;;;17.05;11.10;;;11.80;99.90;;;;;;5144893;28;20037;-65
2023/01/11 12:21:08;;;;;;;21.77;11.55;;;11.80;99.90;;;;;;5144756;28;20015;-64
2023/01/11 12:23:39;;;;;;;19.63;11.88;;;11.90;99.90;;;;;;5144629;28;20426;-65
2023/01/11 12:26:30;;;;;;;20.50;10.10;;;11.90;99.90;;;;;;5144667;28;20033;-64
2023/01/11 12:29:24;;;;;;;19.13;9.98;;;12.00;99.90;;;;;;5144778;28;20058;-65
2023/01/11 12:32:04;;;;;;;22.88;13.40;;;11.90;99.90;;;;;;5144561;28;20038;-65
2023/01/11 12:34:38;;;;;;;21.75;14.73;;;12.00;99.90;;;;;;5144623;28;20026;-65
2023/01/11 12:38:05;;;;;;;31.88;16.63;;;12.00;99.90;;;;;;5144588;28;20026;-65
2023/01/11 12:41:00;;;;;;;31.17;17.98;;;12.10;99.90;;;;;;5122287;29;21081;-65
2023/01/11 12:43:57;;;;;;;17.00;10.25;;;12.10;99.90;;;;;;5122265;29;20059;-64
2023/01/11 12:46:40;;;;;;;9.18;6.70;;;12.10;99.90;;;;;;5141696;28;20391;-64
2023/01/11 12:49:42;;;;;;;13.68;6.68;;;12.10;99.90;;;;;;5144401;28;20019;-64
2023/01/11 12:52:55;;;;;;;8.52;5.85;;;12.20;99.90;;;;;;5144319;28;20517;-64
2023/01/11 12:55:32;;;;;;;9.15;5.55;;;11.90;99.90;;;;;;5144034;28;20055;-64
2023/01/11 12:58:09;;;;;;;8.82;5.05;;;11.80;99.90;;;;;;5144461;28;20022;-65
2023/01/11 13:01:18;;;;;;;5.13;4.43;;;11.80;99.90;;;;;;5144371;28;20475;-65
2023/01/11 13:04:20;;;;;;;8.00;5.15;;;12.00;99.90;;;;;;5144486;28;20038;-65
2023/01/11 13:07:46;;;;;;;6.65;5.20;;;12.20;99.90;;;;;;5144696;28;20518;-65
2023/01/11 13:10:45;;;;;;;7.75;5.20;;;12.30;99.90;;;;;;5139981;28;20471;-65
2023/01/11 13:13:30;;;;;;;9.25;5.00;;;12.40;99.90;;;;;;5148298;28;20080;-65
2023/01/11 13:16:44;;;;;;;13.65;6.32;;;12.20;99.90;;;;;;5148329;28;20101;-64
2023/01/11 13:19:27;;;;;;;11.82;6.88;;;12.60;99.90;;;;;;5145122;28;20039;-65
2023/01/11 13:22:03;;;;;;;8.60;5.65;;;12.90;99.90;;;;;;5148163;28;20023;-64
2023/01/11 13:24:34;;;;;;;8.30;6.10;;;12.40;99.90;;;;;;5148295;28;20047;-66
2023/01/11 13:27:11;;;;;;;10.15;6.30;;;12.30;99.90;;;;;;5148194;28;20352;-64
2023/01/11 13:29:49;;;;;;;10.80;6.20;;;12.20;99.90;;;;;;5148099;28;20030;-64
2023/01/11 13:32:26;;;;;;;10.38;6.97;;;12.00;99.90;;;;;;5147957;28;20043;-64
2023/01/11 13:35:26;;;;;;;9.73;6.07;;;12.10;99.90;;;;;;5147970;28;20110;-64
2023/01/11 13:38:28;;;;;;;9.68;6.22;;;12.20;99.90;;;;;;5147493;28;20045;-63
2023/01/11 13:41:20;;;;;;;6.82;5.30;;;12.10;99.90;;;;;;5145950;28;20066;-63
2023/01/11 13:44:09;;;;;;;8.30;5.65;;;12.10;99.90;;;;;;5148044;28;20772;-63
2023/01/11 13:46:48;;;;;;;13.40;7.65;;;12.10;99.90;;;;;;5147871;28;20039;-63
2023/01/11 13:49:37;;;;;;;19.73;11.45;;;12.10;99.90;;;;;;5147834;28;20130;-64
2023/01/11 13:52:14;;;;;;;17.48;10.60;;;12.00;99.90;;;;;;5146515;28;20110;-64
2023/01/11 13:55:08;;;;;;;20.35;10.93;;;12.10;99.90;;;;;;5147637;28;20089;-65
2023/01/11 13:57:50;;;;;;;40.17;16.88;;;12.00;99.90;;;;;;5147692;28;20031;-65
2023/01/11 14:00:49;;;;;;;13.40;8.45;;;12.00;99.90;;;;;;5147683;28;20019;-65